createdAt,value
2022-12-13T00:02:05.960Z,-0.65
2022-12-13T00:04:34.057Z,-0.64
2022-12-13T00:07:02.483Z,-0.63
2022-12-13T00:09:30.966Z,-0.62
2022-12-13T00:11:59.121Z,-0.60
2022-12-13T00:14:27.152Z,-0.59
2022-12-13T00:16:55.437Z,-0.59
2022-12-13T00:19:23.477Z,-0.59
2022-12-13T00:21:52.365Z,-0.58
2022-12-13T00:24:20.462Z,-0.57
2022-12-13T00:26:48.605Z,-0.56
2022-12-13T00:29:17.772Z,-0.55
2022-12-13T00:32:01.606Z,-0.54
2022-12-13T00:34:30.638Z,-0.53
2022-12-13T00:36:59.336Z,-0.53
2022-12-13T00:39:28.197Z,-0.51
2022-12-13T00:41:57.063Z,-0.51
2022-12-13T00:44:26.395Z,-0.52
2022-12-13T00:46:54.995Z,-0.51
2022-12-13T00:49:23.841Z,-0.51
2022-12-13T00:51:52.174Z,-0.60
2022-12-13T00:54:20.082Z,-0.54
2022-12-13T00:56:48.249Z,-0.55
2022-12-13T00:59:17.446Z,-0.58
2022-12-13T01:01:45.519Z,-0.60
2022-12-13T01:04:16.380Z,-0.62
2022-12-13T01:06:46.537Z,-0.65
2022-12-13T01:09:24.385Z,-0.68
2022-12-13T01:11:57.884Z,-0.72
2022-12-13T01:14:32.387Z,-0.88
2022-12-13T01:17:00.501Z,-0.81
2022-12-13T01:19:30.062Z,-0.83
2022-12-13T01:22:00.186Z,-0.96
2022-12-13T01:24:30.079Z,-0.92
2022-12-13T01:26:58.892Z,-0.96
2022-12-13T01:29:28.025Z,-1.01
2022-12-13T01:31:56.428Z,-1.04
2022-12-13T01:34:26.564Z,-1.08
2022-12-13T01:36:58.006Z,-1.11
2022-12-13T01:39:27.686Z,-1.14
2022-12-13T01:42:00.047Z,-1.17
2022-12-13T01:44:58.325Z,-1.19
2022-12-13T01:47:32.705Z,-1.20
2022-12-13T01:50:06.439Z,-1.19
2022-12-13T01:52:34.970Z,-1.18
2022-12-13T01:55:07.391Z,-1.16
2022-12-13T01:57:45.468Z,-1.14
2022-12-13T02:00:15.529Z,-1.11
2022-12-13T02:02:44.373Z,-1.09
2022-12-13T02:05:21.575Z,-1.05
2022-12-13T02:07:50.485Z,-1.02
2022-12-13T02:10:19.266Z,-0.99
2022-12-13T02:12:47.522Z,-0.97
2022-12-13T02:15:18.655Z,-0.93
2022-12-13T02:17:49.970Z,-0.91
2022-12-13T02:20:40.651Z,-0.89
2022-12-13T02:23:46.341Z,-0.86
2022-12-13T02:26:43.417Z,-0.84
2022-12-13T02:29:37.304Z,-0.82
2022-12-13T02:32:38.774Z,-0.81
2022-12-13T02:35:12.538Z,-0.80
2022-12-13T02:37:50.118Z,-0.79
2022-12-13T02:40:24.479Z,-0.77
2022-12-13T02:43:10.556Z,-0.84
2022-12-13T02:45:46.933Z,-0.75
2022-12-13T02:48:26.375Z,-0.74
2022-12-13T02:50:57.413Z,-0.75
2022-12-13T02:53:26.830Z,-0.73
2022-12-13T02:55:55.058Z,-0.73
2022-12-13T02:58:28.441Z,-0.75
2022-12-13T03:01:05.964Z,-0.72
2022-12-13T03:04:07.378Z,-0.72
2022-12-13T03:06:50.723Z,-0.72
2022-12-13T03:09:31.149Z,-0.72
2022-12-13T03:12:51.998Z,-0.71
2022-12-13T03:15:28.661Z,-0.71
2022-12-13T03:18:03.091Z,-0.71
2022-12-13T03:20:31.499Z,-0.71
2022-12-13T03:22:59.571Z,-0.71
2022-12-13T03:25:32.422Z,-0.72
2022-12-13T03:28:02.414Z,-0.71
2022-12-13T03:30:32.958Z,-0.72
2022-12-13T03:33:02.184Z,-0.72
2022-12-13T03:35:34.343Z,-0.76
2022-12-13T03:38:21.458Z,-0.85
2022-12-13T03:40:54.097Z,-0.73
2022-12-13T03:43:23.255Z,-0.73
2022-12-13T03:45:52.933Z,-0.73
2022-12-13T03:48:23.373Z,-0.74
2022-12-13T03:50:53.978Z,-0.74
2022-12-13T03:53:33.813Z,-0.82
2022-12-13T03:56:06.348Z,-0.74
2022-12-13T03:58:38.066Z,-0.76
2022-12-13T04:01:08.875Z,-0.75
2022-12-13T04:03:38.720Z,-0.75
2022-12-13T04:06:07.836Z,-0.74
2022-12-13T04:08:37.640Z,-0.74
2022-12-13T04:11:25.532Z,-0.75
2022-12-13T04:13:55.039Z,-0.75
2022-12-13T04:16:24.496Z,-0.75
2022-12-13T04:18:52.475Z,-0.76
2022-12-13T04:21:21.469Z,-0.77
2022-12-13T04:23:49.496Z,-0.77
2022-12-13T04:26:17.691Z,-0.79
2022-12-13T04:28:49.495Z,-0.80
2022-12-13T04:31:22.662Z,-0.81
2022-12-13T04:33:51.677Z,-0.81
2022-12-13T04:36:32.203Z,-0.82
2022-12-13T04:39:22.165Z,-0.84
2022-12-13T04:41:52.818Z,-0.87
2022-12-13T04:44:28.956Z,-0.89
2022-12-13T04:47:00.841Z,-0.92
2022-12-13T04:49:30.865Z,-0.94
2022-12-13T04:52:01.396Z,-0.97
2022-12-13T04:54:35.642Z,-0.98
2022-12-13T04:57:11.425Z,-1.00
2022-12-13T04:59:40.376Z,-1.07
2022-12-13T05:02:10.512Z,-1.03
2022-12-13T05:04:38.437Z,-1.05
2022-12-13T05:07:06.597Z,-1.05
2022-12-13T05:09:35.916Z,-1.06
2022-12-13T05:12:04.257Z,-1.07
2022-12-13T05:14:41.253Z,-1.09
2022-12-13T05:17:09.272Z,-1.10
2022-12-13T05:19:37.138Z,-1.12
2022-12-13T05:22:05.918Z,-1.15
2022-12-13T05:24:34.899Z,-1.17
2022-12-13T05:27:02.820Z,-1.19
2022-12-13T05:29:54.835Z,-1.21
2022-12-13T05:32:43.753Z,-1.23
2022-12-13T05:35:22.191Z,-1.25
2022-12-13T05:37:53.861Z,-1.27
2022-12-13T05:40:24.599Z,-1.29
2022-12-13T05:43:00.752Z,-1.33
2022-12-13T05:45:31.968Z,-1.33
2022-12-13T05:48:00.420Z,-1.36
2022-12-13T05:50:28.316Z,-1.38
2022-12-13T05:52:56.576Z,-1.39
2022-12-13T05:55:24.607Z,-1.40
2022-12-13T05:57:52.451Z,-1.40
2022-12-13T06:00:28.514Z,-1.43
2022-12-13T06:03:00.717Z,-1.45
2022-12-13T06:05:30.824Z,-1.48
2022-12-13T06:07:59.046Z,-1.50
2022-12-13T06:10:35.079Z,-1.62
2022-12-13T06:13:21.508Z,-1.54
2022-12-13T06:16:01.622Z,-1.56
2022-12-13T06:18:32.227Z,-1.59
2022-12-13T06:21:03.363Z,-1.62
2022-12-13T06:23:32.568Z,-1.64
2022-12-13T06:26:07.246Z,-1.66
2022-12-13T06:28:35.852Z,-1.68
2022-12-13T06:31:05.536Z,-1.69
2022-12-13T06:33:37.074Z,-1.72
2022-12-13T06:36:05.622Z,-1.74
2022-12-13T06:38:34.136Z,-1.75
2022-12-13T06:41:15.247Z,-1.76
2022-12-13T06:43:45.066Z,-1.77
2022-12-13T06:46:14.180Z,-1.77
2022-12-13T06:48:42.756Z,-1.78
2022-12-13T06:51:11.428Z,-1.78
2022-12-13T06:53:40.597Z,-1.79
2022-12-13T06:56:14.072Z,-1.78
2022-12-13T06:58:42.671Z,-1.78
2022-12-13T07:01:24.454Z,-1.77
2022-12-13T07:03:56.611Z,-1.77
2022-12-13T07:06:26.079Z,-1.78
2022-12-13T07:08:56.679Z,-1.78
2022-12-13T07:11:27.710Z,-1.78
2022-12-13T07:13:56.689Z,-1.79
2022-12-13T07:16:25.293Z,-1.78
2022-12-13T07:19:01.157Z,-1.78
2022-12-13T07:21:30.347Z,-1.77
2022-12-13T07:23:58.380Z,-1.75
2022-12-13T07:26:26.734Z,-1.76
2022-12-13T07:28:55.710Z,-1.75
2022-12-13T07:31:25.424Z,-1.78
2022-12-13T07:33:53.602Z,-1.76
2022-12-13T07:36:23.346Z,-1.77
2022-12-13T07:38:53.581Z,-1.77
2022-12-13T07:41:22.917Z,-1.85
2022-12-13T07:43:55.337Z,-1.77
2022-12-13T07:46:32.430Z,-1.76
2022-12-13T07:49:03.105Z,-1.76
2022-12-13T07:51:36.496Z,-1.77
2022-12-13T07:54:08.566Z,-1.77
2022-12-13T07:56:36.569Z,-1.77
2022-12-13T07:59:04.808Z,-1.77
2022-12-13T08:01:36.810Z,-1.77
2022-12-13T08:04:06.053Z,-1.90
2022-12-13T08:06:38.297Z,-1.80
2022-12-13T08:09:07.140Z,-1.81
2022-12-13T08:11:35.175Z,-1.83
2022-12-13T08:14:03.476Z,-1.83
2022-12-13T08:16:31.663Z,-1.85
2022-12-13T08:19:03.190Z,-1.85
2022-12-13T08:21:57.946Z,-1.86
2022-12-13T08:24:29.863Z,-1.86
2022-12-13T08:27:03.505Z,-1.87
2022-12-13T08:29:36.002Z,-1.86
2022-12-13T08:32:07.150Z,-1.87
2022-12-13T08:34:35.559Z,-1.88
2022-12-13T08:37:04.506Z,-1.90
2022-12-13T08:39:35.901Z,-1.90
2022-12-13T08:42:19.456Z,-1.91
2022-12-13T08:44:50.708Z,-1.93
2022-12-13T08:47:26.946Z,-1.95
2022-12-13T08:50:01.562Z,-1.95
2022-12-13T08:52:40.627Z,-1.97
2022-12-13T08:55:15.032Z,-2.00
2022-12-13T08:57:44.515Z,-1.99
2022-12-13T09:00:15.904Z,-2.09
2022-12-13T09:02:44.267Z,-2.00
2022-12-13T09:05:13.258Z,-2.12
2022-12-13T09:08:13.263Z,-2.10
2022-12-13T09:11:10.713Z,-2.03
2022-12-13T09:13:52.465Z,-2.04
2022-12-13T09:16:35.954Z,-2.04
2022-12-13T09:19:06.596Z,-2.05
2022-12-13T09:21:52.776Z,-2.04
2022-12-13T09:24:36.368Z,-2.03
2022-12-13T09:27:09.943Z,-2.04
2022-12-13T09:29:39.386Z,-2.09
2022-12-13T09:32:07.323Z,-2.04
2022-12-13T09:34:35.421Z,-2.03
2022-12-13T09:37:04.115Z,-2.02
2022-12-13T09:39:34.845Z,-2.01
2022-12-13T09:42:10.262Z,-1.99
2022-12-13T09:45:02.137Z,-1.97
2022-12-13T09:47:38.093Z,-1.94
2022-12-13T09:50:29.788Z,-1.92
2022-12-13T09:53:12.176Z,-1.90
2022-12-13T09:55:52.697Z,-1.89
2022-12-13T09:58:27.816Z,-1.88
2022-12-13T10:00:57.936Z,-1.88
2022-12-13T10:03:27.472Z,-1.87
2022-12-13T10:06:01.523Z,-1.85
2022-12-13T10:08:37.165Z,-1.85
2022-12-13T10:11:05.657Z,-1.85
2022-12-13T10:13:42.748Z,-1.86
2022-12-13T10:16:37.351Z,-1.85
2022-12-13T10:19:29.470Z,-1.82
2022-12-13T10:22:02.158Z,-1.81
2022-12-13T10:24:48.357Z,-1.79
2022-12-13T10:27:38.501Z,-1.78
2022-12-13T10:30:11.928Z,-1.78
2022-12-13T10:32:49.996Z,-1.79
2022-12-13T10:35:34.528Z,-1.82
2022-12-13T10:38:13.934Z,-1.84
2022-12-13T10:40:48.597Z,-1.86
2022-12-13T10:43:24.846Z,-1.95
2022-12-13T10:45:59.026Z,-1.85
2022-12-13T10:48:47.381Z,-1.84
2022-12-13T10:51:20.201Z,-1.83
2022-12-13T10:53:55.329Z,-1.80
2022-12-13T10:56:35.936Z,-1.80
2022-12-13T10:59:37.614Z,-1.85
2022-12-13T11:02:34.040Z,-1.79
2022-12-13T11:05:26.902Z,-1.82
2022-12-13T11:07:55.998Z,-1.77
2022-12-13T11:10:30.523Z,-1.78
2022-12-13T11:13:07.827Z,-1.78
2022-12-13T11:15:38.576Z,-1.78
2022-12-13T11:18:18.569Z,-1.77
2022-12-13T11:21:07.955Z,-1.77
2022-12-13T11:23:44.984Z,-1.77
2022-12-13T11:26:24.483Z,-1.79
2022-12-13T11:29:23.822Z,-1.80
2022-12-13T11:31:54.852Z,-1.82
2022-12-13T11:34:40.339Z,-1.82
2022-12-13T11:37:40.647Z,-1.81
2022-12-13T11:40:14.677Z,-1.80
2022-12-13T11:43:02.518Z,-1.80
2022-12-13T11:45:37.262Z,-1.81
2022-12-13T11:48:24.728Z,-1.80
2022-12-13T11:50:56.665Z,-1.83
2022-12-13T11:53:48.901Z,-1.85
2022-12-13T11:56:26.173Z,-1.89
2022-12-13T11:59:26.917Z,-1.94
2022-12-13T12:02:05.257Z,-1.96
2022-12-13T12:04:47.077Z,-2.08
2022-12-13T12:07:32.870Z,-2.03
2022-12-13T12:10:13.874Z,-2.07
2022-12-13T12:12:51.809Z,-2.11
2022-12-13T12:15:26.843Z,-2.14
2022-12-13T12:17:56.942Z,-2.14
2022-12-13T12:20:52.935Z,-2.15
2022-12-13T12:23:52.429Z,-2.14
2022-12-13T12:26:31.370Z,-2.13
2022-12-13T12:29:17.782Z,-2.14
2022-12-13T12:31:51.816Z,-2.13
2022-12-13T12:34:42.521Z,-2.13
2022-12-13T12:37:21.339Z,-2.13
2022-12-13T12:40:21.014Z,-2.12
2022-12-13T12:43:15.501Z,-2.13
2022-12-13T12:46:11.700Z,-2.15
2022-12-13T12:49:13.941Z,-2.16
2022-12-13T12:52:17.232Z,-2.19
2022-12-13T12:54:53.014Z,-2.22
2022-12-13T12:57:30.548Z,-2.24
2022-12-13T13:00:16.903Z,-2.24
2022-12-13T13:03:15.817Z,-2.26
2022-12-13T13:05:55.827Z,-2.28
2022-12-13T13:08:43.995Z,-2.30
2022-12-13T13:11:24.844Z,-2.34
2022-12-13T13:14:09.005Z,-2.38
2022-12-13T13:16:39.603Z,-2.39
2022-12-13T13:19:13.635Z,-2.43
2022-12-13T13:21:47.541Z,-2.45
2022-12-13T13:24:24.630Z,-2.49
2022-12-13T13:26:58.559Z,-2.51
2022-12-13T13:29:31.311Z,-2.53
2022-12-13T13:32:11.103Z,-2.55
2022-12-13T13:34:46.261Z,-2.59
2022-12-13T13:37:23.822Z,-2.59
2022-12-13T13:39:52.852Z,-2.61
2022-12-13T13:42:26.646Z,-2.61
2022-12-13T13:45:25.339Z,-2.63
2022-12-13T13:48:18.171Z,-2.65
2022-12-13T13:51:08.814Z,-2.68
2022-12-13T13:54:10.843Z,-2.69
2022-12-13T13:57:00.920Z,-2.72
2022-12-13T13:59:55.176Z,-2.73
2022-12-13T14:02:58.796Z,-2.82
2022-12-13T14:06:02.171Z,-2.76
2022-12-13T14:08:34.302Z,-2.78
2022-12-13T14:11:08.523Z,-2.80
2022-12-13T14:13:50.970Z,-2.82
2022-12-13T14:17:04.995Z,-2.84
2022-12-13T14:19:41.980Z,-2.86
2022-12-13T14:22:42.320Z,-2.87
2022-12-13T14:25:20.530Z,-2.88
2022-12-13T14:27:54.542Z,-2.89
2022-12-13T14:30:27.857Z,-2.87
2022-12-13T14:32:58.569Z,-2.87
2022-12-13T14:35:32.585Z,-2.86
2022-12-13T14:38:06.526Z,-2.84
2022-12-13T14:40:38.044Z,-2.82
2022-12-13T14:43:24.474Z,-2.82
2022-12-13T14:45:58.404Z,-2.81
2022-12-13T14:48:29.542Z,-2.81
2022-12-13T14:50:58.628Z,-2.81
2022-12-13T14:53:44.522Z,-2.81
2022-12-13T14:56:28.749Z,-2.81
2022-12-13T14:59:00.582Z,-2.81
2022-12-13T15:01:33.589Z,-2.81
2022-12-13T15:04:24.061Z,-2.90
2022-12-13T15:07:17.954Z,-2.82
2022-12-13T15:09:47.086Z,-2.81
2022-12-13T15:12:24.711Z,-2.81
2022-12-13T15:15:01.125Z,-2.89
2022-12-13T15:17:36.108Z,-2.81
2022-12-13T15:20:28.071Z,-2.88
2022-12-13T15:23:06.213Z,-2.81
2022-12-13T15:25:37.650Z,-2.90
2022-12-13T15:28:07.114Z,-2.83
2022-12-13T15:30:35.778Z,-2.84
2022-12-13T15:33:33.597Z,-2.84
2022-12-13T15:36:19.392Z,-2.85
2022-12-13T15:39:04.359Z,-2.87
2022-12-13T15:41:44.431Z,-2.88
2022-12-13T15:44:22.849Z,-2.89
2022-12-13T15:46:53.245Z,-2.91
2022-12-13T15:49:37.969Z,-2.90
2022-12-13T15:52:15.838Z,-2.91
2022-12-13T15:55:19.590Z,-2.91
2022-12-13T15:57:58.018Z,-2.91
2022-12-13T16:00:30.301Z,-2.91
2022-12-13T16:03:12.647Z,-2.92
2022-12-13T16:05:51.395Z,-2.92
2022-12-13T16:08:28.075Z,-2.94
2022-12-13T16:11:05.614Z,-2.94
2022-12-13T16:13:37.564Z,-2.95
2022-12-13T16:16:27.240Z,-2.95
2022-12-13T16:18:59.143Z,-2.97
2022-12-13T16:21:28.763Z,-2.99
2022-12-13T16:23:57.097Z,-3.00
2022-12-13T16:26:29.546Z,-3.01
2022-12-13T16:29:00.623Z,-3.02
2022-12-13T16:31:36.008Z,-3.04
2022-12-13T16:34:05.879Z,-3.05
2022-12-13T16:36:34.325Z,-3.05
2022-12-13T16:39:03.890Z,-3.06
2022-12-13T16:41:40.213Z,-3.09
2022-12-13T16:44:11.487Z,-3.12
2022-12-13T16:47:11.452Z,-3.15
2022-12-13T16:49:30.803Z,-3.18
2022-12-13T16:51:59.764Z,-3.21
2022-12-13T16:54:27.838Z,-3.23
2022-12-13T16:56:56.890Z,-3.25
2022-12-13T16:59:27.077Z,-3.28
2022-12-13T17:01:55.153Z,-3.31
2022-12-13T17:04:27.437Z,-3.42
2022-12-13T17:06:56.725Z,-3.37
2022-12-13T17:09:25.548Z,-3.39
2022-12-13T17:11:53.963Z,-3.49
2022-12-13T17:14:22.259Z,-3.43
2022-12-13T17:16:51.142Z,-3.46
2022-12-13T17:19:19.938Z,-3.47
2022-12-13T17:21:49.413Z,-3.49
2022-12-13T17:24:17.789Z,-3.58
2022-12-13T17:26:54.618Z,-3.49
2022-12-13T17:29:24.901Z,-3.50
2022-12-13T17:31:53.691Z,-3.50
2022-12-13T17:34:22.304Z,-3.49
2022-12-13T17:36:50.530Z,-3.50
2022-12-13T17:39:19.343Z,-3.52
2022-12-13T17:41:54.756Z,-3.54
2022-12-13T17:44:25.840Z,-3.56
2022-12-13T17:46:55.518Z,-3.57
2022-12-13T17:49:24.835Z,-3.57
2022-12-13T17:51:54.562Z,-3.61
2022-12-13T17:54:24.698Z,-3.70
2022-12-13T17:56:55.702Z,-3.61
2022-12-13T17:59:24.314Z,-3.63
2022-12-13T18:01:52.436Z,-3.65
2022-12-13T18:04:22.281Z,-3.67
2022-12-13T18:06:52.350Z,-3.69
2022-12-13T18:09:20.314Z,-3.71
2022-12-13T18:11:48.405Z,-3.71
2022-12-13T18:14:16.639Z,-3.73
2022-12-13T18:16:44.507Z,-3.74
2022-12-13T18:19:14.857Z,-3.74
2022-12-13T18:21:46.145Z,-3.76
2022-12-13T18:24:14.132Z,-3.80
2022-12-13T18:26:42.159Z,-3.82
2022-12-13T18:29:10.478Z,-3.84
2022-12-13T18:31:38.756Z,-3.85
2022-12-13T18:34:07.535Z,-3.88
2022-12-13T18:36:36.785Z,-3.90
2022-12-13T18:39:04.958Z,-3.92
2022-12-13T18:41:33.506Z,-3.95
2022-12-13T18:44:04.310Z,-3.98
2022-12-13T18:46:35.657Z,-4.02
2022-12-13T18:49:05.666Z,-4.07
2022-12-13T18:51:34.690Z,-4.11
2022-12-13T18:54:03.240Z,-4.13
2022-12-13T18:56:35.042Z,-4.16
2022-12-13T18:59:04.074Z,-4.18
2022-12-13T19:01:33.637Z,-4.20
2022-12-13T19:04:05.264Z,-4.21
2022-12-13T19:06:33.902Z,-4.22
2022-12-13T19:09:02.039Z,-4.22
2022-12-13T19:11:30.319Z,-4.24
2022-12-13T19:13:58.458Z,-4.25
2022-12-13T19:16:26.949Z,-4.25
2022-12-13T19:18:55.024Z,-4.23
2022-12-13T19:21:23.526Z,-4.24
2022-12-13T19:23:56.846Z,-4.25
2022-12-13T19:26:29.614Z,-4.26
2022-12-13T19:28:59.208Z,-4.27
2022-12-13T19:31:32.089Z,-4.27
2022-12-13T19:34:02.300Z,-4.27
2022-12-13T19:36:32.241Z,-4.27
2022-12-13T19:39:00.699Z,-4.28
2022-12-13T19:41:29.669Z,-4.29
2022-12-13T19:43:58.288Z,-4.31
2022-12-13T19:46:26.546Z,-4.32
2022-12-13T19:48:54.735Z,-4.34
2022-12-13T19:51:23.251Z,-4.35
2022-12-13T19:53:51.580Z,-4.40
2022-12-13T19:56:21.374Z,-4.42
2022-12-13T19:58:50.132Z,-4.45
2022-12-13T20:01:18.148Z,-4.47
2022-12-13T20:03:47.252Z,-4.49
2022-12-13T20:06:19.214Z,-4.50
2022-12-13T20:08:47.141Z,-4.54
2022-12-13T20:11:19.686Z,-4.54
2022-12-13T20:13:49.672Z,-4.55
2022-12-13T20:16:20.651Z,-4.57
2022-12-13T20:18:53.770Z,-4.58
2022-12-13T20:21:22.193Z,-4.59
2022-12-13T20:23:50.895Z,-4.59
2022-12-13T20:26:21.707Z,-4.59
2022-12-13T20:28:50.394Z,-4.61
2022-12-13T20:31:21.435Z,-4.61
2022-12-13T20:33:55.765Z,-4.69
2022-12-13T20:36:26.480Z,-4.61
2022-12-13T20:38:57.305Z,-4.61
2022-12-13T20:41:28.217Z,-4.60
2022-12-13T20:43:58.043Z,-4.61
2022-12-13T20:46:27.895Z,-4.61
2022-12-13T20:48:57.918Z,-4.62
2022-12-13T20:51:28.289Z,-4.66
2022-12-13T20:53:56.916Z,-4.66
2022-12-13T20:56:29.522Z,-4.68
2022-12-13T20:58:58.009Z,-4.69
2022-12-13T21:01:30.620Z,-4.70
2022-12-13T21:04:01.482Z,-4.73
2022-12-13T21:06:30.778Z,-4.73
2022-12-13T21:09:03.183Z,-4.73
2022-12-13T21:11:36.965Z,-4.74
2022-12-13T21:14:20.438Z,-4.76
2022-12-13T21:16:51.933Z,-4.78
2022-12-13T21:19:28.532Z,-4.81
2022-12-13T21:21:57.114Z,-4.84
2022-12-13T21:24:26.813Z,-4.86
2022-12-13T21:26:58.686Z,-4.86
2022-12-13T21:29:27.045Z,-4.86
2022-12-13T21:31:55.328Z,-4.88
2022-12-13T21:34:23.637Z,-4.91
2022-12-13T21:36:52.902Z,-4.92
2022-12-13T21:39:28.524Z,-4.95
2022-12-13T21:41:57.601Z,-4.98
2022-12-13T21:44:25.425Z,-5.00
2022-12-13T21:49:48.854Z,-5.05
2022-12-13T21:52:19.976Z,-5.09
2022-12-13T21:54:48.118Z,-5.13
2022-12-13T21:57:34.466Z,-5.16
2022-12-13T22:00:02.500Z,-5.20
2022-12-13T22:02:42.491Z,-5.23
2022-12-13T22:05:10.817Z,-5.25
2022-12-13T22:07:38.885Z,-5.36
2022-12-13T22:10:07.469Z,-5.32
2022-12-13T22:12:38.913Z,-5.33
2022-12-13T22:15:11.967Z,-5.34
2022-12-13T22:17:41.232Z,-5.44
2022-12-13T22:20:12.675Z,-5.36
2022-12-13T22:22:42.506Z,-5.34
2022-12-13T22:25:10.797Z,-5.32
2022-12-13T22:27:38.903Z,-5.31
2022-12-13T22:30:07.951Z,-5.30
2022-12-13T22:32:36.180Z,-5.32
2022-12-13T22:35:05.138Z,-5.32
2022-12-13T22:37:33.455Z,-5.31
2022-12-13T22:40:01.848Z,-5.31
2022-12-13T22:42:29.940Z,-5.30
2022-12-13T22:44:57.885Z,-5.30
2022-12-13T22:47:25.974Z,-5.30
2022-12-13T22:49:54.196Z,-5.29
2022-12-13T22:52:22.046Z,-5.31
2022-12-13T22:54:50.193Z,-5.33
2022-12-13T22:57:18.228Z,-5.32
2022-12-13T22:59:46.058Z,-5.31
2022-12-13T23:02:14.198Z,-5.36
2022-12-13T23:04:42.703Z,-5.30
2022-12-13T23:07:11.024Z,-5.29
2022-12-13T23:09:38.893Z,-5.33
2022-12-13T23:12:25.762Z,-5.32
2022-12-13T23:14:53.997Z,-5.29
2022-12-13T23:17:21.838Z,-5.34
2022-12-13T23:19:53.401Z,-5.20
2022-12-13T23:22:23.838Z,-5.16
2022-12-13T23:24:53.194Z,-5.11
2022-12-13T23:27:24.406Z,-5.12
2022-12-13T23:29:52.347Z,-5.15
2022-12-13T23:32:20.808Z,-5.21
2022-12-13T23:34:48.758Z,-5.23
2022-12-13T23:37:17.051Z,-5.33
2022-12-13T23:39:45.037Z,-5.27
2022-12-13T23:42:21.044Z,-5.32
2022-12-13T23:44:49.141Z,-5.32
2022-12-13T23:47:17.534Z,-5.31
2022-12-13T23:49:45.539Z,-5.30
2022-12-13T23:52:16.486Z,-5.27
2022-12-13T23:54:44.500Z,-5.38
2022-12-13T23:57:12.452Z,-5.29
2022-12-13T23:59:40.844Z,-5.32
